createdAt,value
2023-04-05T00:00:23.904Z,4.38
2023-04-05T00:05:34.470Z,5.25
2023-04-05T00:10:36.290Z,3.97
2023-04-05T00:15:37.939Z,3.22
2023-04-05T00:20:39.769Z,2.97
2023-04-05T00:25:41.536Z,3.60
2023-04-05T00:30:43.417Z,3.40
2023-04-05T00:35:45.294Z,4.07
2023-04-05T00:40:46.918Z,4.38
2023-04-05T00:45:48.581Z,3.80
2023-04-05T00:50:51.264Z,3.35
2023-04-05T00:55:53.290Z,4.13
2023-04-05T01:01:01.864Z,3.78
2023-04-05T01:06:31.174Z,3.05
2023-04-05T01:11:34.063Z,3.70
2023-04-05T01:16:35.686Z,3.47
2023-04-05T01:21:40.451Z,3.63
2023-04-05T01:27:10.097Z,3.05
2023-04-05T01:32:22.158Z,3.17
2023-04-05T01:37:30.703Z,3.08
2023-04-05T01:42:32.320Z,3.13
2023-04-05T01:47:33.969Z,3.88
2023-04-05T01:52:36.062Z,4.97
2023-04-05T01:57:39.071Z,5.68
2023-04-05T02:02:41.239Z,4.95
2023-04-05T02:07:43.729Z,4.90
2023-04-05T02:12:45.439Z,4.35
2023-04-05T02:17:47.620Z,4.45
2023-04-05T02:22:49.278Z,4.00
2023-04-05T02:27:50.993Z,4.25
2023-04-05T02:32:52.649Z,3.60
2023-04-05T02:37:54.296Z,4.68
2023-04-05T02:42:56.134Z,3.92
2023-04-05T02:47:57.861Z,4.32
2023-04-05T02:53:00.870Z,3.35
2023-04-05T02:58:04.160Z,3.88
2023-04-05T03:03:14.356Z,3.90
2023-04-05T03:08:23.830Z,4.32
2023-04-05T03:13:36.017Z,4.20
2023-04-05T03:18:41.185Z,4.13
2023-04-05T03:23:48.589Z,4.07
2023-04-05T03:28:54.495Z,3.85
2023-04-05T03:34:02.938Z,3.47
2023-04-05T03:39:13.861Z,3.55
2023-04-05T03:44:15.610Z,4.63
2023-04-05T03:49:20.023Z,4.43
2023-04-05T03:54:22.055Z,3.72
2023-04-05T03:59:24.928Z,4.53
2023-04-05T04:04:28.163Z,5.90
2023-04-05T04:09:31.172Z,3.85
2023-04-05T04:14:40.388Z,3.35
2023-04-05T04:20:00.953Z,4.38
2023-04-05T04:25:20.373Z,3.20
2023-04-05T04:30:34.976Z,3.95
2023-04-05T04:35:49.589Z,3.17
2023-04-05T04:41:08.203Z,3.58
2023-04-05T04:46:42.887Z,3.92
2023-04-05T04:51:50.442Z,3.33
2023-04-05T04:56:55.999Z,4.43
2023-04-05T05:01:57.642Z,4.93
2023-04-05T05:06:59.240Z,5.43
2023-04-05T05:12:01.803Z,4.85
2023-04-05T05:17:05.367Z,5.22
2023-04-05T05:22:07.168Z,6.68
2023-04-05T05:27:08.828Z,4.75
2023-04-05T05:32:14.477Z,4.22
2023-04-05T05:37:17.279Z,4.40
2023-04-05T05:42:19.175Z,4.43
2023-04-05T05:47:21.091Z,4.30
2023-04-05T05:52:22.791Z,4.78
2023-04-05T05:57:24.474Z,4.68
2023-04-05T06:02:26.407Z,4.40
2023-04-05T06:07:28.867Z,3.78
2023-04-05T06:12:30.494Z,3.85
2023-04-05T06:17:34.197Z,3.53
2023-04-05T06:22:36.621Z,3.78
2023-04-05T06:27:38.270Z,3.35
2023-04-05T06:32:39.862Z,3.22
2023-04-05T06:37:42.158Z,3.28
2023-04-05T06:42:44.073Z,3.78
2023-04-05T06:47:50.220Z,3.80
2023-04-05T06:52:51.834Z,3.08
2023-04-05T06:57:53.419Z,3.85
2023-04-05T07:02:55.082Z,3.85
2023-04-05T07:07:57.004Z,4.05
2023-04-05T07:12:58.671Z,4.30
2023-04-05T07:18:00.372Z,3.75
2023-04-05T07:23:02.480Z,3.60
2023-04-05T07:28:04.150Z,3.70
2023-04-05T07:33:05.782Z,3.83
2023-04-05T07:38:07.428Z,3.80
2023-04-05T07:43:09.036Z,3.25
2023-04-05T07:48:11.038Z,3.75
2023-04-05T07:53:12.743Z,3.63
2023-04-05T07:58:14.482Z,4.88
2023-04-05T08:03:16.104Z,4.10
2023-04-05T08:08:17.782Z,3.75
2023-04-05T08:13:19.417Z,3.40
2023-04-05T08:18:21.117Z,2.80
2023-04-05T08:23:23.549Z,3.78
2023-04-05T08:28:25.158Z,3.92
2023-04-05T08:33:28.484Z,2.78
2023-04-05T08:38:30.223Z,2.50
2023-04-05T08:43:55.308Z,3.78
2023-04-05T08:48:58.248Z,2.97
2023-04-05T08:54:01.178Z,3.00
2023-04-05T08:59:08.421Z,3.30
2023-04-05T09:04:15.777Z,2.95
2023-04-05T09:09:20.457Z,3.08
2023-04-05T09:14:22.226Z,3.42
2023-04-05T09:19:24.127Z,3.28
2023-04-05T09:24:37.027Z,5.45
2023-04-05T09:29:40.642Z,2.90
2023-04-05T09:34:44.087Z,2.80
2023-04-05T09:40:03.937Z,2.90
2023-04-05T09:45:07.366Z,3.22
2023-04-05T09:50:20.805Z,3.40
2023-04-05T09:55:29.039Z,3.35
2023-04-05T10:00:32.430Z,3.05
2023-04-05T10:05:34.182Z,2.70
2023-04-05T10:10:46.151Z,2.47
2023-04-05T10:15:52.085Z,3.25
2023-04-05T10:20:57.689Z,3.25
2023-04-05T10:26:08.146Z,3.13
2023-04-05T10:31:54.433Z,3.25
2023-04-05T10:37:02.282Z,3.13
2023-04-05T10:42:06.733Z,2.97
2023-04-05T10:47:14.006Z,2.78
2023-04-05T10:52:17.667Z,2.72
2023-04-05T10:57:21.477Z,2.42
2023-04-05T11:02:23.561Z,2.90
2023-04-05T11:07:25.539Z,3.72
2023-04-05T11:12:45.643Z,2.70
2023-04-05T11:18:16.805Z,3.03
2023-04-05T11:23:21.692Z,2.40
2023-04-05T11:28:30.529Z,2.70
2023-04-05T11:33:55.313Z,2.35
2023-04-05T11:39:19.535Z,2.60
2023-04-05T11:44:22.171Z,2.90
2023-04-05T11:49:25.807Z,3.10
2023-04-05T11:54:33.973Z,2.63
2023-04-05T11:59:36.520Z,2.95
2023-04-05T12:04:38.895Z,2.90
2023-04-05T12:09:58.851Z,2.55
2023-04-05T12:15:02.056Z,2.45
2023-04-05T12:20:04.291Z,2.38
2023-04-05T12:25:06.765Z,3.67
2023-04-05T12:30:36.210Z,4.45
2023-04-05T12:35:39.693Z,2.42
2023-04-05T12:40:41.661Z,2.05
2023-04-05T12:45:44.542Z,2.47
2023-04-05T12:50:48.568Z,3.05
2023-04-05T12:55:57.190Z,2.47
2023-04-05T13:00:59.044Z,2.88
2023-04-05T13:06:00.750Z,3.25
2023-04-05T13:11:02.420Z,3.00
2023-04-05T13:16:04.160Z,2.78
2023-04-05T13:21:08.022Z,2.50
2023-04-05T13:26:09.780Z,2.45
2023-04-05T13:31:13.556Z,2.83
2023-04-05T13:36:16.851Z,2.40
2023-04-05T13:41:18.489Z,2.38
2023-04-05T13:46:20.152Z,3.03
2023-04-05T13:51:21.881Z,2.50
2023-04-05T13:56:23.531Z,2.17
2023-04-05T14:01:25.478Z,2.60
2023-04-05T14:06:27.619Z,2.30
2023-04-05T14:11:29.325Z,2.10
2023-04-05T14:16:31.859Z,2.28
2023-04-05T14:21:33.597Z,2.63
2023-04-05T14:26:35.472Z,2.95
2023-04-05T14:31:37.196Z,1.90
2023-04-05T14:36:38.905Z,2.20
2023-04-05T14:41:41.063Z,1.95
2023-04-05T14:46:42.892Z,2.75
2023-04-05T14:51:45.272Z,2.28
2023-04-05T14:56:49.497Z,2.30
2023-04-05T15:01:51.386Z,2.10
2023-04-05T15:06:53.047Z,2.15
2023-04-05T15:11:56.003Z,3.22
2023-04-05T15:16:57.695Z,3.45
2023-04-05T15:21:59.365Z,2.83
2023-04-05T15:27:03.545Z,3.33
2023-04-05T15:32:05.471Z,2.40
2023-04-05T15:37:07.496Z,1.75
2023-04-05T15:42:09.119Z,2.28
2023-04-05T15:47:13.406Z,2.10
2023-04-05T15:52:15.674Z,2.28
2023-04-05T15:57:17.304Z,2.47
2023-04-05T16:02:19.274Z,2.10
2023-04-05T16:07:20.946Z,2.92
2023-04-05T16:12:22.631Z,2.65
2023-04-05T16:17:25.647Z,3.03
2023-04-05T16:22:27.400Z,2.38
2023-04-05T16:27:29.008Z,2.05
2023-04-05T16:32:30.734Z,2.47
2023-04-05T16:37:32.360Z,2.38
2023-04-05T16:42:33.985Z,3.35
2023-04-05T16:47:35.852Z,2.80
2023-04-05T16:52:37.462Z,2.40
2023-04-05T16:57:39.112Z,2.70
2023-04-05T17:02:40.806Z,2.17
2023-04-05T17:07:42.466Z,2.08
2023-04-05T17:12:45.636Z,2.38
2023-04-05T17:17:47.278Z,1.98
2023-04-05T17:22:50.016Z,1.98
2023-04-05T17:27:51.629Z,1.90
2023-04-05T17:32:53.512Z,2.63
2023-04-05T17:37:55.329Z,2.85
2023-04-05T17:42:56.936Z,2.40
2023-04-05T17:47:58.635Z,2.30
2023-04-05T17:53:00.426Z,2.42
2023-04-05T17:58:02.122Z,2.20
2023-04-05T18:03:07.967Z,3.30
2023-04-05T18:08:10.213Z,2.90
2023-04-05T18:13:12.159Z,3.13
2023-04-05T18:18:13.820Z,3.63
2023-04-05T18:23:15.808Z,5.20
2023-04-05T18:28:22.618Z,3.80
2023-04-05T18:33:24.765Z,3.28
2023-04-05T18:38:26.543Z,3.35
2023-04-05T18:43:28.187Z,5.53
2023-04-05T18:48:29.844Z,4.07
2023-04-05T18:53:31.445Z,4.47
2023-04-05T18:58:33.195Z,3.60
2023-04-05T19:03:35.078Z,3.83
2023-04-05T19:08:36.869Z,4.22
2023-04-05T19:13:38.461Z,4.65
2023-04-05T19:18:40.052Z,5.30
2023-04-05T19:23:42.088Z,5.90
2023-04-05T19:28:43.673Z,5.88
2023-04-05T19:33:45.274Z,5.07
2023-04-05T19:38:47.124Z,5.95
2023-04-05T19:43:50.385Z,4.47
2023-04-05T19:48:52.056Z,6.43
2023-04-05T19:53:54.073Z,6.15
2023-04-05T19:59:03.301Z,6.88
2023-04-05T20:04:12.715Z,6.05
2023-04-05T20:09:18.186Z,5.93
2023-04-05T20:14:26.693Z,6.03
2023-04-05T20:19:30.705Z,6.32
2023-04-05T20:24:32.410Z,7.00
2023-04-05T20:29:36.261Z,7.50
2023-04-05T20:34:38.350Z,7.32
2023-04-05T20:39:40.063Z,6.03
2023-04-05T20:44:41.726Z,6.78
2023-04-05T20:49:44.589Z,7.15
2023-04-05T20:54:47.581Z,6.30
2023-04-05T20:59:49.218Z,7.50
2023-04-05T21:04:51.089Z,10.30
2023-04-05T21:09:52.750Z,8.82
2023-04-05T21:14:54.332Z,7.05
2023-04-05T21:19:56.423Z,7.60
2023-04-05T21:24:58.023Z,7.85
2023-04-05T21:29:59.940Z,7.70
2023-04-05T21:35:01.626Z,6.20
2023-04-05T21:40:04.242Z,5.70
2023-04-05T21:45:06.695Z,5.35
2023-04-05T21:50:09.299Z,6.00
2023-04-05T21:55:11.104Z,6.40
2023-04-05T22:00:12.825Z,6.13
2023-04-05T22:05:25.741Z,6.85
2023-04-05T22:10:36.486Z,6.68
2023-04-05T22:15:38.210Z,6.78
2023-04-05T22:20:39.843Z,6.20
2023-04-05T22:25:41.424Z,6.90
2023-04-05T22:30:44.439Z,6.32
2023-04-05T22:35:46.468Z,7.05
2023-04-05T22:40:48.121Z,6.70
2023-04-05T22:45:52.132Z,7.28
2023-04-05T22:50:53.790Z,6.82
2023-04-05T22:55:55.481Z,7.10
2023-04-05T23:00:57.110Z,7.00
2023-04-05T23:05:58.760Z,7.00
2023-04-05T23:11:00.389Z,5.97
2023-04-05T23:16:02.030Z,7.18
2023-04-05T23:21:03.875Z,7.10
2023-04-05T23:26:05.603Z,7.55
2023-04-05T23:31:07.320Z,6.03
2023-04-05T23:36:09.765Z,6.50
2023-04-05T23:41:11.428Z,6.50
2023-04-05T23:46:13.473Z,7.30
2023-04-05T23:51:15.139Z,7.82
2023-04-05T23:56:16.970Z,6.72
